sensor_id;sensor_type;location;lat;lon;timestamp;pressure;altitude;pressure_sealevel;temperature;humidity
18275;BME280;19470;49.322;7.218;2023-06-19T00:00:35;98291.94;;;24.73;100.00
18275;BME280;19470;49.322;7.218;2023-06-19T00:03:02;98295.00;;;24.19;100.00
18275;BME280;19470;49.322;7.218;2023-06-19T00:05:29;98290.63;;;24.55;100.00
18275;BME280;19470;49.322;7.218;2023-06-19T00:07:57;98293.03;;;24.84;100.00
18275;BME280;19470;49.322;7.218;2023-06-19T00:10:26;98288.97;;;25.06;97.07
18275;BME280;19470;49.322;7.218;2023-06-19T00:12:52;98286.13;;;24.87;96.35
18275;BME280;19470;49.322;7.218;2023-06-19T00:15:19;98296.88;;;25.11;95.31
18275;BME280;19470;49.322;7.218;2023-06-19T00:17:45;98299.31;;;24.88;97.08
18275;BME280;19470;49.322;7.218;2023-06-19T00:20:11;98307.59;;;25.08;95.43
18275;BME280;19470;49.322;7.218;2023-06-19T00:22:38;98306.97;;;24.98;94.73
18275;BME280;19470;49.322;7.218;2023-06-19T00:25:07;98304.69;;;25.01;95.36
18275;BME280;19470;49.322;7.218;2023-06-19T00:27:34;98303.25;;;24.91;94.35
18275;BME280;19470;49.322;7.218;2023-06-19T00:30:00;98296.22;;;25.02;93.66
18275;BME280;19470;49.322;7.218;2023-06-19T00:32:28;98292.53;;;24.94;92.19
18275;BME280;19470;49.322;7.218;2023-06-19T00:34:54;98299.94;;;25.10;92.23
18275;BME280;19470;49.322;7.218;2023-06-19T00:37:21;98291.56;;;25.03;91.48
18275;BME280;19470;49.322;7.218;2023-06-19T00:39:48;98304.56;;;24.29;97.93
18275;BME280;19470;49.322;7.218;2023-06-19T00:42:15;98301.09;;;24.96;92.70
18275;BME280;19470;49.322;7.218;2023-06-19T00:44:42;98299.69;;;25.31;90.18
18275;BME280;19470;49.322;7.218;2023-06-19T00:47:09;98301.44;;;25.23;90.06
18275;BME280;19470;49.322;7.218;2023-06-19T00:49:35;98291.81;;;25.26;91.72
18275;BME280;19470;49.322;7.218;2023-06-19T00:52:02;98280.59;;;24.83;96.47
18275;BME280;19470;49.322;7.218;2023-06-19T00:54:30;98287.38;;;25.33;90.85
18275;BME280;19470;49.322;7.218;2023-06-19T00:56:57;98280.28;;;25.29;89.89
18275;BME280;19470;49.322;7.218;2023-06-19T00:59:25;98274.91;;;25.01;93.36
18275;BME280;19470;49.322;7.218;2023-06-19T01:01:52;98269.00;;;25.11;91.76
18275;BME280;19470;49.322;7.218;2023-06-19T01:04:18;98250.13;;;25.62;87.41
18275;BME280;19470;49.322;7.218;2023-06-19T01:06:51;98254.41;;;25.15;91.01
18275;BME280;19470;49.322;7.218;2023-06-19T01:09:25;98268.16;;;24.38;95.55
18275;BME280;19470;49.322;7.218;2023-06-19T01:12:01;98284.59;;;24.33;97.47
18275;BME280;19470;49.322;7.218;2023-06-19T01:14:35;98297.75;;;24.87;92.97
18275;BME280;19470;49.322;7.218;2023-06-19T01:17:02;98281.09;;;25.29;88.72
18275;BME280;19470;49.322;7.218;2023-06-19T01:19:29;98296.97;;;25.15;90.85
18275;BME280;19470;49.322;7.218;2023-06-19T01:21:56;98294.78;;;24.92;90.89
18275;BME280;19470;49.322;7.218;2023-06-19T01:24:24;98290.91;;;25.06;90.69
18275;BME280;19470;49.322;7.218;2023-06-19T01:26:50;98294.25;;;25.15;90.81
18275;BME280;19470;49.322;7.218;2023-06-19T01:29:18;98291.03;;;24.69;95.20
18275;BME280;19470;49.322;7.218;2023-06-19T01:31:50;98293.31;;;24.67;95.17
18275;BME280;19470;49.322;7.218;2023-06-19T01:34:20;98299.31;;;24.60;96.15
18275;BME280;19470;49.322;7.218;2023-06-19T01:36:48;98301.97;;;25.01;91.69
18275;BME280;19470;49.322;7.218;2023-06-19T01:39:16;98307.38;;;24.85;91.84
18275;BME280;19470;49.322;7.218;2023-06-19T01:41:45;98308.19;;;24.73;92.12
18275;BME280;19470;49.322;7.218;2023-06-19T01:44:12;98306.72;;;25.04;89.60
18275;BME280;19470;49.322;7.218;2023-06-19T01:46:39;98303.38;;;24.94;90.34
18275;BME280;19470;49.322;7.218;2023-06-19T01:49:07;98303.78;;;25.09;89.90
18275;BME280;19470;49.322;7.218;2023-06-19T01:51:34;98312.22;;;24.79;90.69
18275;BME280;19470;49.322;7.218;2023-06-19T01:54:01;98312.09;;;24.47;93.38
18275;BME280;19470;49.322;7.218;2023-06-19T01:56:28;98325.84;;;24.18;96.39
18275;BME280;19470;49.322;7.218;2023-06-19T01:58:56;98333.53;;;24.40;95.52
18275;BME280;19470;49.322;7.218;2023-06-19T02:01:22;98330.50;;;23.93;98.34
18275;BME280;19470;49.322;7.218;2023-06-19T02:03:49;98331.69;;;23.59;100.00
18275;BME280;19470;49.322;7.218;2023-06-19T02:06:15;98344.69;;;23.78;99.51
18275;BME280;19470;49.322;7.218;2023-06-19T02:08:42;98341.19;;;23.89;98.41
18275;BME280;19470;49.322;7.218;2023-06-19T02:11:08;98344.25;;;24.00;97.88
18275;BME280;19470;49.322;7.218;2023-06-19T02:13:35;98344.50;;;23.62;100.00
18275;BME280;19470;49.322;7.218;2023-06-19T02:16:03;98344.13;;;23.84;98.86
18275;BME280;19470;49.322;7.218;2023-06-19T02:18:30;98346.06;;;23.51;100.00
18275;BME280;19470;49.322;7.218;2023-06-19T02:20:56;98352.84;;;23.44;100.00
18275;BME280;19470;49.322;7.218;2023-06-19T02:23:23;98336.69;;;23.69;99.67
18275;BME280;19470;49.322;7.218;2023-06-19T02:25:49;98342.09;;;23.93;98.49
18275;BME280;19470;49.322;7.218;2023-06-19T02:28:16;98343.25;;;24.05;97.49
18275;BME280;19470;49.322;7.218;2023-06-19T02:30:42;98340.09;;;24.15;97.11
18275;BME280;19470;49.322;7.218;2023-06-19T02:33:10;98341.31;;;23.93;98.30
18275;BME280;19470;49.322;7.218;2023-06-19T02:35:36;98338.72;;;24.09;96.94
18275;BME280;19470;49.322;7.218;2023-06-19T02:38:03;98341.06;;;24.35;95.34
18275;BME280;19470;49.322;7.218;2023-06-19T02:40:30;98338.22;;;24.68;92.86
18275;BME280;19470;49.322;7.218;2023-06-19T02:42:56;98340.69;;;24.73;92.21
18275;BME280;19470;49.322;7.218;2023-06-19T02:45:23;98337.44;;;24.67;91.79
18275;BME280;19470;49.322;7.218;2023-06-19T02:47:49;98339.06;;;24.07;97.83
18275;BME280;19470;49.322;7.218;2023-06-19T02:50:18;98337.13;;;24.57;93.60
18275;BME280;19470;49.322;7.218;2023-06-19T02:52:45;98348.88;;;24.48;94.62
18275;BME280;19470;49.322;7.218;2023-06-19T02:55:14;98363.28;;;24.53;93.26
18275;BME280;19470;49.322;7.218;2023-06-19T02:57:41;98358.06;;;24.60;91.96
18275;BME280;19470;49.322;7.218;2023-06-19T03:00:08;98377.03;;;23.98;97.31
18275;BME280;19470;49.322;7.218;2023-06-19T03:02:37;98372.75;;;24.22;95.91
18275;BME280;19470;49.322;7.218;2023-06-19T03:05:09;98375.59;;;24.26;95.87
18275;BME280;19470;49.322;7.218;2023-06-19T03:07:37;98386.19;;;24.06;97.49
18275;BME280;19470;49.322;7.218;2023-06-19T03:10:04;98377.38;;;24.21;96.39
18275;BME280;19470;49.322;7.218;2023-06-19T03:12:31;98380.22;;;24.01;97.25
18275;BME280;19470;49.322;7.218;2023-06-19T03:14:57;98386.63;;;24.08;97.31
18275;BME280;19470;49.322;7.218;2023-06-19T03:17:24;98387.13;;;23.65;100.00
18275;BME280;19470;49.322;7.218;2023-06-19T03:19:50;98386.06;;;24.27;96.66
18275;BME280;19470;49.322;7.218;2023-06-19T03:22:17;98381.56;;;24.19;97.32
18275;BME280;19470;49.322;7.218;2023-06-19T03:24:45;98389.50;;;23.66;100.00
18275;BME280;19470;49.322;7.218;2023-06-19T03:27:11;98386.06;;;24.27;97.21
18275;BME280;19470;49.322;7.218;2023-06-19T03:29:38;98387.06;;;23.86;100.00
18275;BME280;19470;49.322;7.218;2023-06-19T03:32:05;98398.00;;;24.02;99.82
18275;BME280;19470;49.322;7.218;2023-06-19T03:34:32;98395.84;;;23.83;100.00
18275;BME280;19470;49.322;7.218;2023-06-19T03:36:58;98395.28;;;23.89;100.00
18275;BME280;19470;49.322;7.218;2023-06-19T03:39:25;98403.19;;;24.07;99.70
18275;BME280;19470;49.322;7.218;2023-06-19T03:41:53;98406.88;;;23.90;100.00
18275;BME280;19470;49.322;7.218;2023-06-19T03:44:19;98405.22;;;24.22;98.40
18275;BME280;19470;49.322;7.218;2023-06-19T03:46:46;98415.97;;;24.18;98.05
18275;BME280;19470;49.322;7.218;2023-06-19T03:49:12;98413.59;;;24.29;98.90
18275;BME280;19470;49.322;7.218;2023-06-19T03:51:39;98413.88;;;23.79;100.00
18275;BME280;19470;49.322;7.218;2023-06-19T03:54:05;98417.28;;;24.00;100.00
18275;BME280;19470;49.322;7.218;2023-06-19T03:56:32;98408.41;;;24.24;99.71
18275;BME280;19470;49.322;7.218;2023-06-19T03:58:59;98400.94;;;24.21;99.56
18275;BME280;19470;49.322;7.218;2023-06-19T04:01:26;98400.22;;;23.42;100.00
18275;BME280;19470;49.322;7.218;2023-06-19T04:03:52;98399.94;;;23.02;100.00
18275;BME280;19470;49.322;7.218;2023-06-19T04:06:19;98400.47;;;23.16;100.00
18275;BME280;19470;49.322;7.218;2023-06-19T04:08:45;98408.59;;;23.28;100.00
18275;BME280;19470;49.322;7.218;2023-06-19T04:11:12;98404.13;;;23.32;100.00
18275;BME280;19470;49.322;7.218;2023-06-19T04:13:39;98405.75;;;22.91;100.00
18275;BME280;19470;49.322;7.218;2023-06-19T04:16:07;98412.59;;;23.64;100.00
18275;BME280;19470;49.322;7.218;2023-06-19T04:18:33;98402.81;;;23.38;100.00
18275;BME280;19470;49.322;7.218;2023-06-19T04:21:00;98403.06;;;23.91;100.00
18275;BME280;19470;49.322;7.218;2023-06-19T04:23:26;98396.56;;;23.59;100.00
18275;BME280;19470;49.322;7.218;2023-06-19T04:25:53;98402.28;;;23.90;100.00
18275;BME280;19470;49.322;7.218;2023-06-19T04:28:19;98392.00;;;23.71;100.00
18275;BME280;19470;49.322;7.218;2023-06-19T04:30:46;98394.00;;;23.08;100.00
18275;BME280;19470;49.322;7.218;2023-06-19T04:33:14;98389.94;;;23.02;100.00
18275;BME280;19470;49.322;7.218;2023-06-19T04:35:40;98402.59;;;23.10;100.00
18275;BME280;19470;49.322;7.218;2023-06-19T04:38:07;98395.28;;;22.81;100.00
18275;BME280;19470;49.322;7.218;2023-06-19T04:40:33;98390.78;;;22.43;100.00
18275;BME280;19470;49.322;7.218;2023-06-19T04:43:01;98382.47;;;22.99;100.00
18275;BME280;19470;49.322;7.218;2023-06-19T04:48:53;98401.31;;;22.57;100.00
18275;BME280;19470;49.322;7.218;2023-06-19T04:51:22;98392.88;;;23.30;100.00
18275;BME280;19470;49.322;7.218;2023-06-19T04:53:48;98398.91;;;23.81;100.00
18275;BME280;19470;49.322;7.218;2023-06-19T04:56:15;98412.00;;;23.37;100.00
18275;BME280;19470;49.322;7.218;2023-06-19T04:58:41;98408.00;;;22.81;100.00
18275;BME280;19470;49.322;7.218;2023-06-19T05:01:11;98402.47;;;23.40;100.00
18275;BME280;19470;49.322;7.218;2023-06-19T05:03:37;98402.06;;;22.96;100.00
18275;BME280;19470;49.322;7.218;2023-06-19T05:06:05;98401.81;;;23.76;100.00
18275;BME280;19470;49.322;7.218;2023-06-19T05:08:32;98413.53;;;23.80;100.00
18275;BME280;19470;49.322;7.218;2023-06-19T05:10:58;98410.69;;;23.64;100.00
18275;BME280;19470;49.322;7.218;2023-06-19T05:13:25;98423.31;;;23.73;100.00
18275;BME280;19470;49.322;7.218;2023-06-19T05:15:51;98420.63;;;23.52;100.00
18275;BME280;19470;49.322;7.218;2023-06-19T05:18:18;98415.28;;;23.64;100.00
18275;BME280;19470;49.322;7.218;2023-06-19T05:20:45;98411.59;;;23.47;100.00
18275;BME280;19470;49.322;7.218;2023-06-19T05:23:13;98409.97;;;24.62;100.00
18275;BME280;19470;49.322;7.218;2023-06-19T05:25:39;98399.22;;;23.80;100.00
18275;BME280;19470;49.322;7.218;2023-06-19T05:28:06;98408.22;;;23.84;100.00
18275;BME280;19470;49.322;7.218;2023-06-19T05:30:32;98405.00;;;23.90;100.00
18275;BME280;19470;49.322;7.218;2023-06-19T05:33:00;98407.34;;;24.04;100.00
18275;BME280;19470;49.322;7.218;2023-06-19T05:35:26;98403.09;;;23.25;100.00
18275;BME280;19470;49.322;7.218;2023-06-19T05:37:53;98408.28;;;23.30;100.00
18275;BME280;19470;49.322;7.218;2023-06-19T05:40:22;98408.53;;;23.70;100.00
18275;BME280;19470;49.322;7.218;2023-06-19T05:42:48;98407.09;;;23.73;100.00
18275;BME280;19470;49.322;7.218;2023-06-19T05:45:15;98402.75;;;23.26;100.00
18275;BME280;19470;49.322;7.218;2023-06-19T05:47:41;98403.84;;;23.79;100.00
18275;BME280;19470;49.322;7.218;2023-06-19T05:50:09;98397.97;;;23.77;100.00
18275;BME280;19470;49.322;7.218;2023-06-19T05:52:35;98404.09;;;23.98;100.00
18275;BME280;19470;49.322;7.218;2023-06-19T05:55:02;98398.91;;;23.81;100.00
18275;BME280;19470;49.322;7.218;2023-06-19T05:57:30;98405.19;;;23.40;100.00
18275;BME280;19470;49.322;7.218;2023-06-19T05:59:57;98402.34;;;23.69;100.00
18275;BME280;19470;49.322;7.218;2023-06-19T06:02:23;98411.09;;;24.24;100.00
18275;BME280;19470;49.322;7.218;2023-06-19T06:04:53;98433.47;;;23.55;100.00
18275;BME280;19470;49.322;7.218;2023-06-19T06:07:21;98430.44;;;23.77;100.00
18275;BME280;19470;49.322;7.218;2023-06-19T06:09:48;98429.72;;;24.50;100.00
18275;BME280;19470;49.322;7.218;2023-06-19T06:12:14;98443.03;;;23.85;100.00
18275;BME280;19470;49.322;7.218;2023-06-19T06:14:42;98445.31;;;23.83;100.00
18275;BME280;19470;49.322;7.218;2023-06-19T06:17:08;98453.69;;;24.03;100.00
18275;BME280;19470;49.322;7.218;2023-06-19T06:19:35;98446.59;;;24.22;100.00
18275;BME280;19470;49.322;7.218;2023-06-19T06:22:02;98449.59;;;24.42;100.00
18275;BME280;19470;49.322;7.218;2023-06-19T06:24:28;98461.41;;;24.74;100.00
18275;BME280;19470;49.322;7.218;2023-06-19T06:26:55;98455.72;;;25.16;98.87
18275;BME280;19470;49.322;7.218;2023-06-19T06:29:21;98458.81;;;24.90;100.00
18275;BME280;19470;49.322;7.218;2023-06-19T06:31:49;98461.66;;;24.57;100.00
18275;BME280;19470;49.322;7.218;2023-06-19T06:34:17;98470.84;;;24.31;100.00
18275;BME280;19470;49.322;7.218;2023-06-19T06:36:44;98466.56;;;24.30;100.00
18275;BME280;19470;49.322;7.218;2023-06-19T06:39:29;98473.94;;;25.31;96.58
18275;BME280;19470;49.322;7.218;2023-06-19T06:41:56;98481.06;;;25.64;92.94
18275;BME280;19470;49.322;7.218;2023-06-19T06:44:22;98474.94;;;25.79;91.91
18275;BME280;19470;49.322;7.218;2023-06-19T06:46:50;98477.06;;;24.93;94.37
18275;BME280;19470;49.322;7.218;2023-06-19T06:49:16;98476.25;;;25.17;94.27
18275;BME280;19470;49.322;7.218;2023-06-19T06:51:43;98480.97;;;25.32;92.54
18275;BME280;19470;49.322;7.218;2023-06-19T06:54:09;98492.16;;;24.20;99.40
18275;BME280;19470;49.322;7.218;2023-06-19T06:56:36;98504.44;;;24.18;100.00
18275;BME280;19470;49.322;7.218;2023-06-19T06:59:02;98514.34;;;24.47;99.52
18275;BME280;19470;49.322;7.218;2023-06-19T07:01:29;98511.72;;;25.12;95.08
18275;BME280;19470;49.322;7.218;2023-06-19T07:03:56;98522.06;;;26.03;87.89
18275;BME280;19470;49.322;7.218;2023-06-19T07:06:23;98511.75;;;25.80;89.43
18275;BME280;19470;49.322;7.218;2023-06-19T07:08:49;98521.94;;;25.83;90.10
18275;BME280;19470;49.322;7.218;2023-06-19T07:11:16;98530.41;;;25.82;89.92
18275;BME280;19470;49.322;7.218;2023-06-19T07:13:42;98520.41;;;25.58;87.78
18275;BME280;19470;49.322;7.218;2023-06-19T07:16:09;98524.69;;;25.59;87.98
18275;BME280;19470;49.322;7.218;2023-06-19T07:18:35;98529.19;;;25.67;87.99
18275;BME280;19470;49.322;7.218;2023-06-19T07:21:08;98532.53;;;25.48;90.05
18275;BME280;19470;49.322;7.218;2023-06-19T07:23:37;98545.13;;;25.28;90.12
18275;BME280;19470;49.322;7.218;2023-06-19T07:26:03;98539.47;;;25.21;90.99
18275;BME280;19470;49.322;7.218;2023-06-19T07:28:30;98540.38;;;26.21;83.14
18275;BME280;19470;49.322;7.218;2023-06-19T07:30:56;98553.91;;;25.37;88.22
18275;BME280;19470;49.322;7.218;2023-06-19T07:33:23;98553.38;;;25.19;89.88
18275;BME280;19470;49.322;7.218;2023-06-19T07:35:49;98554.91;;;25.73;86.85
18275;BME280;19470;49.322;7.218;2023-06-19T07:38:17;98551.94;;;25.90;86.22
18275;BME280;19470;49.322;7.218;2023-06-19T07:40:43;98544.84;;;25.73;84.19
18275;BME280;19470;49.322;7.218;2023-06-19T07:43:10;98545.50;;;26.11;82.94
18275;BME280;19470;49.322;7.218;2023-06-19T07:45:36;98546.03;;;26.44;81.27
18275;BME280;19470;49.322;7.218;2023-06-19T07:48:03;98548.38;;;25.34;86.75
18275;BME280;19470;49.322;7.218;2023-06-19T07:50:30;98538.66;;;25.73;84.12
18275;BME280;19470;49.322;7.218;2023-06-19T07:52:57;98544.91;;;24.96;90.10
18275;BME280;19470;49.322;7.218;2023-06-19T07:55:25;98544.66;;;25.02;89.80
18275;BME280;19470;49.322;7.218;2023-06-19T07:57:53;98555.19;;;25.96;84.24
18275;BME280;19470;49.322;7.218;2023-06-19T08:00:22;98553.47;;;26.04;83.53
18275;BME280;19470;49.322;7.218;2023-06-19T08:02:48;98550.00;;;25.63;86.17
18275;BME280;19470;49.322;7.218;2023-06-19T08:05:15;98553.63;;;25.55;85.82
18275;BME280;19470;49.322;7.218;2023-06-19T08:07:41;98558.09;;;25.75;84.51
18275;BME280;19470;49.322;7.218;2023-06-19T08:10:09;98553.38;;;26.75;79.77
18275;BME280;19470;49.322;7.218;2023-06-19T08:12:36;98564.44;;;26.07;83.59
18275;BME280;19470;49.322;7.218;2023-06-19T08:15:03;98561.31;;;25.65;85.24
18275;BME280;19470;49.322;7.218;2023-06-19T08:17:30;98555.22;;;25.56;85.37
18275;BME280;19470;49.322;7.218;2023-06-19T08:19:56;98561.72;;;25.67;84.86
18275;BME280;19470;49.322;7.218;2023-06-19T08:22:23;98566.13;;;25.84;84.23
18275;BME280;19470;49.322;7.218;2023-06-19T08:24:50;98556.66;;;25.65;84.56
18275;BME280;19470;49.322;7.218;2023-06-19T08:27:16;98556.03;;;26.12;83.28
18275;BME280;19470;49.322;7.218;2023-06-19T08:29:46;98554.88;;;27.59;76.34
18275;BME280;19470;49.322;7.218;2023-06-19T08:32:13;98550.09;;;27.52;75.42
18275;BME280;19470;49.322;7.218;2023-06-19T08:34:39;98546.66;;;28.14;72.14
18275;BME280;19470;49.322;7.218;2023-06-19T08:37:07;98549.09;;;26.59;77.62
18275;BME280;19470;49.322;7.218;2023-06-19T08:39:33;98541.66;;;27.96;72.19
18275;BME280;19470;49.322;7.218;2023-06-19T08:42:01;98556.47;;;26.14;79.24
18275;BME280;19470;49.322;7.218;2023-06-19T08:44:27;98550.03;;;26.98;74.06
18275;BME280;19470;49.322;7.218;2023-06-19T08:46:57;98547.50;;;27.60;73.62
18275;BME280;19470;49.322;7.218;2023-06-19T08:49:23;98545.53;;;28.87;67.94
18275;BME280;19470;49.322;7.218;2023-06-19T08:51:50;98539.44;;;29.81;63.09
18275;BME280;19470;49.322;7.218;2023-06-19T08:54:17;98531.53;;;28.39;69.83
18275;BME280;19470;49.322;7.218;2023-06-19T08:56:46;98550.34;;;27.47;71.62
18275;BME280;19470;49.322;7.218;2023-06-19T08:59:15;98539.94;;;28.99;66.39
18275;BME280;19470;49.322;7.218;2023-06-19T09:01:46;98540.78;;;27.92;71.16
18275;BME280;19470;49.322;7.218;2023-06-19T09:04:19;98536.16;;;27.19;74.06
18275;BME280;19470;49.322;7.218;2023-06-19T09:06:47;98543.06;;;27.51;72.27
18275;BME280;19470;49.322;7.218;2023-06-19T09:09:14;98547.56;;;27.09;74.71
18275;BME280;19470;49.322;7.218;2023-06-19T09:11:41;98550.84;;;26.83;74.80
18275;BME280;19470;49.322;7.218;2023-06-19T09:14:09;98543.53;;;27.02;74.88
18275;BME280;19470;49.322;7.218;2023-06-19T09:16:38;98537.00;;;27.58;71.93
18275;BME280;19470;49.322;7.218;2023-06-19T09:19:04;98538.44;;;28.33;68.29
18275;BME280;19470;49.322;7.218;2023-06-19T09:21:35;98527.31;;;28.22;68.64
18275;BME280;19470;49.322;7.218;2023-06-19T09:24:03;98542.25;;;27.32;70.61
18275;BME280;19470;49.322;7.218;2023-06-19T09:26:30;98543.06;;;27.71;70.20
18275;BME280;19470;49.322;7.218;2023-06-19T09:28:56;98535.31;;;29.03;65.33
18275;BME280;19470;49.322;7.218;2023-06-19T09:31:31;98535.66;;;30.26;61.80
18275;BME280;19470;49.322;7.218;2023-06-19T09:33:59;98545.78;;;28.52;66.78
18275;BME280;19470;49.322;7.218;2023-06-19T09:36:25;98541.44;;;28.28;68.87
18275;BME280;19470;49.322;7.218;2023-06-19T09:38:54;98540.19;;;29.17;65.84
18275;BME280;19470;49.322;7.218;2023-06-19T09:41:22;98534.81;;;28.98;66.36
18275;BME280;19470;49.322;7.218;2023-06-19T09:43:54;98539.03;;;28.69;67.68
18275;BME280;19470;49.322;7.218;2023-06-19T09:46:26;98538.25;;;30.15;63.01
18275;BME280;19470;49.322;7.218;2023-06-19T09:48:58;98541.25;;;30.88;60.19
18275;BME280;19470;49.322;7.218;2023-06-19T09:51:30;98534.63;;;31.66;58.03
18275;BME280;19470;49.322;7.218;2023-06-19T09:53:59;98530.78;;;31.81;57.33
18275;BME280;19470;49.322;7.218;2023-06-19T09:56:27;98536.69;;;28.44;65.14
18275;BME280;19470;49.322;7.218;2023-06-19T09:58:56;98533.34;;;28.55;66.80
18275;BME280;19470;49.322;7.218;2023-06-19T10:01:26;98530.25;;;31.43;57.55
18275;BME280;19470;49.322;7.218;2023-06-19T10:04:04;98533.88;;;30.11;59.60
18275;BME280;19470;49.322;7.218;2023-06-19T10:06:31;98512.34;;;31.64;57.78
18275;BME280;19470;49.322;7.218;2023-06-19T10:09:07;98522.66;;;30.16;62.84
18275;BME280;19470;49.322;7.218;2023-06-19T10:11:46;98508.19;;;32.80;54.66
18275;BME280;19470;49.322;7.218;2023-06-19T10:14:13;98499.16;;;32.98;53.09
18275;BME280;19470;49.322;7.218;2023-06-19T10:16:40;98502.59;;;34.15;50.49
18275;BME280;19470;49.322;7.218;2023-06-19T10:19:11;98490.31;;;33.64;52.49
18275;BME280;19470;49.322;7.218;2023-06-19T10:21:44;98497.97;;;33.02;54.31
18275;BME280;19470;49.322;7.218;2023-06-19T10:24:15;98496.81;;;32.00;55.48
18275;BME280;19470;49.322;7.218;2023-06-19T10:26:55;98494.28;;;31.41;56.58
18275;BME280;19470;49.322;7.218;2023-06-19T10:29:21;98490.78;;;31.44;56.85
18275;BME280;19470;49.322;7.218;2023-06-19T10:31:48;98490.56;;;32.99;52.94
18275;BME280;19470;49.322;7.218;2023-06-19T10:34:15;98485.84;;;32.96;53.63
18275;BME280;19470;49.322;7.218;2023-06-19T10:36:41;98489.50;;;34.33;51.49
18275;BME280;19470;49.322;7.218;2023-06-19T10:39:08;98494.44;;;30.45;59.81
18275;BME280;19470;49.322;7.218;2023-06-19T10:41:39;98500.66;;;31.77;56.98
18275;BME280;19470;49.322;7.218;2023-06-19T10:44:07;98489.16;;;34.27;49.79
18275;BME280;19470;49.322;7.218;2023-06-19T10:46:38;98496.63;;;34.72;48.06
18275;BME280;19470;49.322;7.218;2023-06-19T10:49:06;98496.47;;;34.90;47.83
18275;BME280;19470;49.322;7.218;2023-06-19T10:51:35;98488.50;;;33.28;51.23
18275;BME280;19470;49.322;7.218;2023-06-19T10:54:02;98482.47;;;35.45;45.04
18275;BME280;19470;49.322;7.218;2023-06-19T10:56:29;98481.97;;;36.12;44.21
18275;BME280;19470;49.322;7.218;2023-06-19T10:59:01;98476.13;;;33.79;47.38
18275;BME280;19470;49.322;7.218;2023-06-19T11:01:33;98475.41;;;35.44;46.01
18275;BME280;19470;49.322;7.218;2023-06-19T11:04:02;98457.09;;;37.05;42.94
18275;BME280;19470;49.322;7.218;2023-06-19T11:06:28;98451.16;;;36.17;43.84
18275;BME280;19470;49.322;7.218;2023-06-19T11:08:55;98468.66;;;34.36;46.69
18275;BME280;19470;49.322;7.218;2023-06-19T11:11:21;98451.53;;;35.65;45.27
18275;BME280;19470;49.322;7.218;2023-06-19T11:13:48;98446.84;;;36.43;42.37
18275;BME280;19470;49.322;7.218;2023-06-19T11:16:16;98442.78;;;37.50;41.67
18275;BME280;19470;49.322;7.218;2023-06-19T11:18:42;98447.63;;;37.06;41.79
18275;BME280;19470;49.322;7.218;2023-06-19T11:21:09;98452.28;;;35.69;44.66
18275;BME280;19470;49.322;7.218;2023-06-19T11:23:35;98441.69;;;34.68;45.26
18275;BME280;19470;49.322;7.218;2023-06-19T11:26:03;98452.59;;;35.44;44.45
18275;BME280;19470;49.322;7.218;2023-06-19T11:28:30;98437.59;;;34.80;46.00
18275;BME280;19470;49.322;7.218;2023-06-19T11:31:01;98431.44;;;35.68;44.72
18275;BME280;19470;49.322;7.218;2023-06-19T11:33:29;98434.19;;;35.06;44.45
18275;BME280;19470;49.322;7.218;2023-06-19T11:36:02;98441.34;;;36.16;42.68
18275;BME280;19470;49.322;7.218;2023-06-19T11:38:28;98447.50;;;35.73;43.60
18275;BME280;19470;49.322;7.218;2023-06-19T11:40:56;98440.28;;;36.33;42.60
18275;BME280;19470;49.322;7.218;2023-06-19T11:43:26;98438.75;;;35.78;44.26
18275;BME280;19470;49.322;7.218;2023-06-19T11:45:54;98431.03;;;35.96;43.09
18275;BME280;19470;49.322;7.218;2023-06-19T11:48:23;98427.38;;;35.49;44.49
18275;BME280;19470;49.322;7.218;2023-06-19T11:50:52;98431.16;;;35.28;45.23
18275;BME280;19470;49.322;7.218;2023-06-19T11:53:19;98428.03;;;36.34;42.75
18275;BME280;19470;49.322;7.218;2023-06-19T11:55:46;98435.34;;;35.97;42.54
18275;BME280;19470;49.322;7.218;2023-06-19T11:58:13;98419.38;;;35.58;44.12
18275;BME280;19470;49.322;7.218;2023-06-19T12:00:40;98424.19;;;35.50;44.10
18275;BME280;19470;49.322;7.218;2023-06-19T12:03:07;98429.44;;;34.73;46.36
18275;BME280;19470;49.322;7.218;2023-06-19T12:05:33;98429.63;;;33.44;48.51
18275;BME280;19470;49.322;7.218;2023-06-19T12:08:01;98430.13;;;34.39;46.36
18275;BME280;19470;49.322;7.218;2023-06-19T12:10:28;98432.25;;;32.17;52.22
18275;BME280;19470;49.322;7.218;2023-06-19T12:12:57;98429.50;;;32.13;52.22
18275;BME280;19470;49.322;7.218;2023-06-19T12:15:24;98435.00;;;32.38;52.25
18275;BME280;19470;49.322;7.218;2023-06-19T12:17:51;98435.84;;;31.05;54.33
18275;BME280;19470;49.322;7.218;2023-06-19T12:20:18;98445.53;;;30.33;56.46
18275;BME280;19470;49.322;7.218;2023-06-19T12:22:44;98450.16;;;30.22;58.31
18275;BME280;19470;49.322;7.218;2023-06-19T12:25:12;98451.84;;;29.96;60.01
18275;BME280;19470;49.322;7.218;2023-06-19T12:27:39;98448.69;;;30.87;59.34
18275;BME280;19470;49.322;7.218;2023-06-19T12:30:07;98445.47;;;31.58;57.50
18275;BME280;19470;49.322;7.218;2023-06-19T12:32:34;98447.75;;;31.34;58.78
18275;BME280;19470;49.322;7.218;2023-06-19T12:35:00;98447.13;;;32.19;56.03
18275;BME280;19470;49.322;7.218;2023-06-19T12:37:28;98438.13;;;32.12;56.50
18275;BME280;19470;49.322;7.218;2023-06-19T12:39:54;98446.69;;;32.74;55.05
18275;BME280;19470;49.322;7.218;2023-06-19T12:42:22;98447.06;;;32.94;54.00
18275;BME280;19470;49.322;7.218;2023-06-19T12:44:49;98431.78;;;32.82;53.66
18275;BME280;19470;49.322;7.218;2023-06-19T12:47:15;98434.56;;;32.65;53.66
18275;BME280;19470;49.322;7.218;2023-06-19T12:49:43;98444.66;;;31.61;56.08
18275;BME280;19470;49.322;7.218;2023-06-19T12:52:10;98432.66;;;32.04;54.70
18275;BME280;19470;49.322;7.218;2023-06-19T12:54:37;98438.81;;;33.01;53.32
18275;BME280;19470;49.322;7.218;2023-06-19T12:57:07;98443.41;;;33.26;53.25
18275;BME280;19470;49.322;7.218;2023-06-19T12:59:35;98438.50;;;32.49;53.06
18275;BME280;19470;49.322;7.218;2023-06-19T13:02:01;98437.22;;;33.07;53.06